Terminal Aerodrome Forecast
Issued by NWS Charleston, WV

Current Version | Previous Version | Text Only | Print | Product List | Glossary Off
Versions: 1 2 3 4 5 6 7 8 9 10 11 12 13 14 15 16 17 18 19 20 21

180
FTUS41 KRLX 031720
TAFHTS
TAF
KHTS 031720Z 0318/0418 22011KT P6SM FEW050
     FM032300 25006KT P6SM FEW050
     FM040700 27006KT P6SM BKN035
     FM040900 27005KT P6SM BKN025
     FM041700 28006KT P6SM SCT025=

USA.gov is the U.S. government's official web portal to all federal, state and local government web resources and services.